sensor_id;sensor_type;location;lat;lon;timestamp;P1;P2;P0
37709;PMS5003;60223;34.854;-92.408;2023-03-01T00:01:00;5;3;
37709;PMS5003;60223;34.854;-92.408;2023-03-01T00:03:22;6;6;
37709;PMS5003;60223;34.854;-92.408;2023-03-01T00:05:48;3;3;
37709;PMS5003;60223;34.854;-92.408;2023-03-01T00:08:14;3;3;
37709;PMS5003;60223;34.854;-92.408;2023-03-01T00:10:39;3;3;
37709;PMS5003;60223;34.854;-92.408;2023-03-01T00:13:02;7;6;
37709;PMS5003;60223;34.854;-92.408;2023-03-01T00:15:31;5;3;
37709;PMS5003;60223;34.854;-92.408;2023-03-01T00:17:56;4;4;
37709;PMS5003;60223;34.854;-92.408;2023-03-01T00:20:22;5;2;
37709;PMS5003;60223;34.854;-92.408;2023-03-01T00:22:47;3;3;
37709;PMS5003;60223;34.854;-92.408;2023-03-01T00:25:13;4;4;
37709;PMS5003;60223;34.854;-92.408;2023-03-01T00:27:38;4;4;
37709;PMS5003;60223;34.854;-92.408;2023-03-01T00:30:05;3;3;
37709;PMS5003;60223;34.854;-92.408;2023-03-01T00:32:29;7;3;
37709;PMS5003;60223;34.854;-92.408;2023-03-01T00:34:55;4;4;
37709;PMS5003;60223;34.854;-92.408;2023-03-01T00:37:21;4;4;
37709;PMS5003;60223;34.854;-92.408;2023-03-01T00:39:45;4;3;
37709;PMS5003;60223;34.854;-92.408;2023-03-01T00:42:12;6;3;
37709;PMS5003;60223;34.854;-92.408;2023-03-01T00:44:38;6;5;
37709;PMS5003;60223;34.854;-92.408;2023-03-01T00:47:03;3;3;
37709;PMS5003;60223;34.854;-92.408;2023-03-01T00:49:29;3;3;
37709;PMS5003;60223;34.854;-92.408;2023-03-01T00:51:55;2;2;
37709;PMS5003;60223;34.854;-92.408;2023-03-01T00:54:18;3;3;
37709;PMS5003;60223;34.854;-92.408;2023-03-01T00:56:46;2;2;
37709;PMS5003;60223;34.854;-92.408;2023-03-01T00:59:12;3;3;
37709;PMS5003;60223;34.854;-92.408;2023-03-01T01:01:37;7;3;
37709;PMS5003;60223;34.854;-92.408;2023-03-01T01:04:03;3;3;
37709;PMS5003;60223;34.854;-92.408;2023-03-01T01:06:29;3;3;
37709;PMS5003;60223;34.854;-92.408;2023-03-01T01:08:54;6;4;
37709;PMS5003;60223;34.854;-92.408;2023-03-01T01:11:20;8;5;
37709;PMS5003;60223;34.854;-92.408;2023-03-01T01:13:45;4;4;
37709;PMS5003;60223;34.854;-92.408;2023-03-01T01:16:11;6;5;
37709;PMS5003;60223;34.854;-92.408;2023-03-01T01:18:37;2;2;
37709;PMS5003;60223;34.854;-92.408;2023-03-01T01:21:04;7;3;
37709;PMS5003;60223;34.854;-92.408;2023-03-01T01:23:28;3;3;
37709;PMS5003;60223;34.854;-92.408;2023-03-01T01:38:02;5;3;
37709;PMS5003;60223;34.854;-92.408;2023-03-01T01:40:28;8;4;
37709;PMS5003;60223;34.854;-92.408;2023-03-01T01:42:53;2;1;
37709;PMS5003;60223;34.854;-92.408;2023-03-01T01:47:44;3;3;
37709;PMS5003;60223;34.854;-92.408;2023-03-01T01:50:10;6;5;
37709;PMS5003;60223;34.854;-92.408;2023-03-01T01:52:36;2;2;
37709;PMS5003;60223;34.854;-92.408;2023-03-01T01:55:02;3;3;
37709;PMS5003;60223;34.854;-92.408;2023-03-01T01:57:30;3;3;
37709;PMS5003;60223;34.854;-92.408;2023-03-01T01:59:53;5;3;
37709;PMS5003;60223;34.854;-92.408;2023-03-01T02:02:18;3;3;
37709;PMS5003;60223;34.854;-92.408;2023-03-01T02:04:42;6;4;
37709;PMS5003;60223;34.854;-92.408;2023-03-01T02:07:11;4;4;
37709;PMS5003;60223;34.854;-92.408;2023-03-01T02:09:35;4;4;
37709;PMS5003;60223;34.854;-92.408;2023-03-01T02:12:01;5;4;
37709;PMS5003;60223;34.854;-92.408;2023-03-01T02:14:26;4;4;
37709;PMS5003;60223;34.854;-92.408;2023-03-01T02:16:51;3;1;
37709;PMS5003;60223;34.854;-92.408;2023-03-01T02:19:22;4;4;
37709;PMS5003;60223;34.854;-92.408;2023-03-01T02:21:45;4;4;
37709;PMS5003;60223;34.854;-92.408;2023-03-01T02:24:08;3;3;
37709;PMS5003;60223;34.854;-92.408;2023-03-01T02:26:35;3;3;
37709;PMS5003;60223;34.854;-92.408;2023-03-01T02:29:00;3;3;
37709;PMS5003;60223;34.854;-92.408;2023-03-01T02:31:25;5;3;
37709;PMS5003;60223;34.854;-92.408;2023-03-01T02:33:52;3;2;
37709;PMS5003;60223;34.854;-92.408;2023-03-01T02:36:18;5;4;
37709;PMS5003;60223;34.854;-92.408;2023-03-01T02:38:43;5;4;
37709;PMS5003;60223;34.854;-92.408;2023-03-01T02:41:08;4;4;
37709;PMS5003;60223;34.854;-92.408;2023-03-01T02:43:32;3;3;
37709;PMS5003;60223;34.854;-92.408;2023-03-01T02:46:02;4;3;
37709;PMS5003;60223;34.854;-92.408;2023-03-01T02:48:25;5;4;
37709;PMS5003;60223;34.854;-92.408;2023-03-01T02:50:54;5;5;
37709;PMS5003;60223;34.854;-92.408;2023-03-01T02:53:15;5;4;
37709;PMS5003;60223;34.854;-92.408;2023-03-01T02:55:42;5;4;
37709;PMS5003;60223;34.854;-92.408;2023-03-01T02:58:05;5;4;
37709;PMS5003;60223;34.854;-92.408;2023-03-01T03:00:35;3;3;
37709;PMS5003;60223;34.854;-92.408;2023-03-01T03:02:59;2;2;
37709;PMS5003;60223;34.854;-92.408;2023-03-01T03:05:25;3;3;
37709;PMS5003;60223;34.854;-92.408;2023-03-01T03:07:51;4;2;
37709;PMS5003;60223;34.854;-92.408;2023-03-01T03:10:17;6;4;
37709;PMS5003;60223;34.854;-92.408;2023-03-01T03:12:42;2;2;
37709;PMS5003;60223;34.854;-92.408;2023-03-01T03:15:07;4;4;
37709;PMS5003;60223;34.854;-92.408;2023-03-01T03:17:33;4;4;
37709;PMS5003;60223;34.854;-92.408;2023-03-01T03:19:59;4;4;
37709;PMS5003;60223;34.854;-92.408;2023-03-01T03:22:24;2;2;
37709;PMS5003;60223;34.854;-92.408;2023-03-01T03:24:49;4;4;
37709;PMS5003;60223;34.854;-92.408;2023-03-01T03:27:16;5;4;
37709;PMS5003;60223;34.854;-92.408;2023-03-01T03:29:41;5;5;
37709;PMS5003;60223;34.854;-92.408;2023-03-01T03:32:07;4;4;
37709;PMS5003;60223;34.854;-92.408;2023-03-01T03:34:32;7;6;
37709;PMS5003;60223;34.854;-92.408;2023-03-01T03:36:57;7;4;
37709;PMS5003;60223;34.854;-92.408;2023-03-01T03:39:23;6;4;
37709;PMS5003;60223;34.854;-92.408;2023-03-01T03:41:49;4;4;
37709;PMS5003;60223;34.854;-92.408;2023-03-01T03:44:15;5;4;
37709;PMS5003;60223;34.854;-92.408;2023-03-01T03:46:39;4;3;
37709;PMS5003;60223;34.854;-92.408;2023-03-01T03:49:06;2;2;
37709;PMS5003;60223;34.854;-92.408;2023-03-01T03:51:32;3;3;
37709;PMS5003;60223;34.854;-92.408;2023-03-01T03:53:57;3;3;
37709;PMS5003;60223;34.854;-92.408;2023-03-01T03:56:23;2;2;
37709;PMS5003;60223;34.854;-92.408;2023-03-01T03:58:47;4;4;
37709;PMS5003;60223;34.854;-92.408;2023-03-01T04:01:14;5;4;
37709;PMS5003;60223;34.854;-92.408;2023-03-01T04:03:40;3;3;
37709;PMS5003;60223;34.854;-92.408;2023-03-01T04:06:06;5;5;
37709;PMS5003;60223;34.854;-92.408;2023-03-01T04:08:30;4;4;
37709;PMS5003;60223;34.854;-92.408;2023-03-01T04:10:58;3;3;
37709;PMS5003;60223;34.854;-92.408;2023-03-01T04:13:23;5;5;
37709;PMS5003;60223;34.854;-92.408;2023-03-01T04:15:49;5;5;
37709;PMS5003;60223;34.854;-92.408;2023-03-01T04:18:14;3;3;
37709;PMS5003;60223;34.854;-92.408;2023-03-01T04:20:39;5;3;
37709;PMS5003;60223;34.854;-92.408;2023-03-01T04:23:05;7;6;
37709;PMS5003;60223;34.854;-92.408;2023-03-01T04:25:31;3;3;
37709;PMS5003;60223;34.854;-92.408;2023-03-01T04:27:56;3;3;
37709;PMS5003;60223;34.854;-92.408;2023-03-01T04:30:21;3;3;
37709;PMS5003;60223;34.854;-92.408;2023-03-01T04:32:48;4;4;
37709;PMS5003;60223;34.854;-92.408;2023-03-01T04:35:14;2;2;
37709;PMS5003;60223;34.854;-92.408;2023-03-01T04:37:39;4;4;
37709;PMS5003;60223;34.854;-92.408;2023-03-01T04:40:05;4;4;
37709;PMS5003;60223;34.854;-92.408;2023-03-01T04:42:30;5;3;
37709;PMS5003;60223;34.854;-92.408;2023-03-01T04:44:56;6;5;
37709;PMS5003;60223;34.854;-92.408;2023-03-01T04:47:21;3;3;
37709;PMS5003;60223;34.854;-92.408;2023-03-01T04:49:47;3;3;
37709;PMS5003;60223;34.854;-92.408;2023-03-01T04:52:13;4;3;
37709;PMS5003;60223;34.854;-92.408;2023-03-01T04:54:37;4;4;
37709;PMS5003;60223;34.854;-92.408;2023-03-01T04:57:04;3;3;
37709;PMS5003;60223;34.854;-92.408;2023-03-01T04:59:30;5;5;
37709;PMS5003;60223;34.854;-92.408;2023-03-01T05:01:56;5;4;
37709;PMS5003;60223;34.854;-92.408;2023-03-01T05:04:20;4;4;
37709;PMS5003;60223;34.854;-92.408;2023-03-01T05:06:47;5;4;
37709;PMS5003;60223;34.854;-92.408;2023-03-01T05:09:13;3;3;
37709;PMS5003;60223;34.854;-92.408;2023-03-01T05:11:38;4;4;
37709;PMS5003;60223;34.854;-92.408;2023-03-01T05:14:02;6;4;
37709;PMS5003;60223;34.854;-92.408;2023-03-01T05:16:29;3;3;
37709;PMS5003;60223;34.854;-92.408;2023-03-01T05:18:55;4;4;
37709;PMS5003;60223;34.854;-92.408;2023-03-01T05:48:03;4;3;
37709;PMS5003;60223;34.854;-92.408;2023-03-01T05:50:29;4;2;
37709;PMS5003;60223;34.854;-92.408;2023-03-01T05:52:57;4;3;
37709;PMS5003;60223;34.854;-92.408;2023-03-01T05:55:18;2;2;
37709;PMS5003;60223;34.854;-92.408;2023-03-01T05:57:44;5;5;
37709;PMS5003;60223;34.854;-92.408;2023-03-01T06:00:12;3;3;
37709;PMS5003;60223;34.854;-92.408;2023-03-01T06:02:36;7;7;
37709;PMS5003;60223;34.854;-92.408;2023-03-01T06:05:01;3;3;
37709;PMS5003;60223;34.854;-92.408;2023-03-01T06:07:27;5;3;
37709;PMS5003;60223;34.854;-92.408;2023-03-01T06:09:53;4;4;
37709;PMS5003;60223;34.854;-92.408;2023-03-01T06:12:18;4;4;
37709;PMS5003;60223;34.854;-92.408;2023-03-01T06:14:45;3;3;
37709;PMS5003;60223;34.854;-92.408;2023-03-01T06:17:10;5;4;
37709;PMS5003;60223;34.854;-92.408;2023-03-01T06:19:35;4;4;
37709;PMS5003;60223;34.854;-92.408;2023-03-01T06:22:01;3;3;
37709;PMS5003;60223;34.854;-92.408;2023-03-01T06:24:27;3;3;
37709;PMS5003;60223;34.854;-92.408;2023-03-01T06:26:53;3;3;
37709;PMS5003;60223;34.854;-92.408;2023-03-01T06:29:18;9;4;
37709;PMS5003;60223;34.854;-92.408;2023-03-01T06:31:42;5;5;
37709;PMS5003;60223;34.854;-92.408;2023-03-01T06:34:09;2;2;
37709;PMS5003;60223;34.854;-92.408;2023-03-01T06:36:35;4;4;
37709;PMS5003;60223;34.854;-92.408;2023-03-01T06:39:01;6;5;
37709;PMS5003;60223;34.854;-92.408;2023-03-01T06:41:26;5;2;
37709;PMS5003;60223;34.854;-92.408;2023-03-01T06:43:52;3;3;
37709;PMS5003;60223;34.854;-92.408;2023-03-01T06:46:18;5;3;
37709;PMS5003;60223;34.854;-92.408;2023-03-01T06:48:43;4;4;
37709;PMS5003;60223;34.854;-92.408;2023-03-01T06:51:09;3;2;
37709;PMS5003;60223;34.854;-92.408;2023-03-01T06:53:35;5;3;
37709;PMS5003;60223;34.854;-92.408;2023-03-01T06:56:00;5;4;
37709;PMS5003;60223;34.854;-92.408;2023-03-01T06:58:24;3;3;
37709;PMS5003;60223;34.854;-92.408;2023-03-01T07:00:52;4;3;
37709;PMS5003;60223;34.854;-92.408;2023-03-01T07:03:18;3;3;
37709;PMS5003;60223;34.854;-92.408;2023-03-01T07:10:34;3;3;
37709;PMS5003;60223;34.854;-92.408;2023-03-01T07:13:00;4;4;
37709;PMS5003;60223;34.854;-92.408;2023-03-01T07:15:26;4;4;
37709;PMS5003;60223;34.854;-92.408;2023-03-01T07:17:52;3;3;
37709;PMS5003;60223;34.854;-92.408;2023-03-01T07:20:18;1;1;
37709;PMS5003;60223;34.854;-92.408;2023-03-01T07:22:43;4;4;
37709;PMS5003;60223;34.854;-92.408;2023-03-01T07:25:09;4;4;
37709;PMS5003;60223;34.854;-92.408;2023-03-01T07:27:35;2;2;
37709;PMS5003;60223;34.854;-92.408;2023-03-01T07:30:01;4;4;
37709;PMS5003;60223;34.854;-92.408;2023-03-01T07:32:24;3;3;
37709;PMS5003;60223;34.854;-92.408;2023-03-01T07:34:50;4;4;
37709;PMS5003;60223;34.854;-92.408;2023-03-01T07:37:17;3;3;
37709;PMS5003;60223;34.854;-92.408;2023-03-01T07:39:43;3;3;
37709;PMS5003;60223;34.854;-92.408;2023-03-01T07:42:09;1;1;
37709;PMS5003;60223;34.854;-92.408;2023-03-01T07:44:34;4;4;
37709;PMS5003;60223;34.854;-92.408;2023-03-01T07:47:00;2;2;
37709;PMS5003;60223;34.854;-92.408;2023-03-01T07:49:24;5;5;
37709;PMS5003;60223;34.854;-92.408;2023-03-01T07:51:52;2;2;
37709;PMS5003;60223;34.854;-92.408;2023-03-01T07:54:17;7;5;
37709;PMS5003;60223;34.854;-92.408;2023-03-01T07:56:43;4;4;
37709;PMS5003;60223;34.854;-92.408;2023-03-01T07:59:09;2;2;
37709;PMS5003;60223;34.854;-92.408;2023-03-01T08:01:34;3;3;
37709;PMS5003;60223;34.854;-92.408;2023-03-01T08:03:59;4;3;
37709;PMS5003;60223;34.854;-92.408;2023-03-01T08:06:26;4;4;
37709;PMS5003;60223;34.854;-92.408;2023-03-01T08:08:51;2;2;
37709;PMS5003;60223;34.854;-92.408;2023-03-01T08:11:17;4;4;
37709;PMS5003;60223;34.854;-92.408;2023-03-01T08:13:43;5;3;
37709;PMS5003;60223;34.854;-92.408;2023-03-01T08:16:10;3;3;
37709;PMS5003;60223;34.854;-92.408;2023-03-01T08:18:31;4;4;
37709;PMS5003;60223;34.854;-92.408;2023-03-01T08:21:02;4;4;
37709;PMS5003;60223;34.854;-92.408;2023-03-01T08:25:51;2;2;
37709;PMS5003;60223;34.854;-92.408;2023-03-01T08:28:17;3;3;
37709;PMS5003;60223;34.854;-92.408;2023-03-01T08:30:42;3;3;
37709;PMS5003;60223;34.854;-92.408;2023-03-01T08:33:08;4;4;
37709;PMS5003;60223;34.854;-92.408;2023-03-01T08:35:34;3;3;
37709;PMS5003;60223;34.854;-92.408;2023-03-01T08:37:59;4;4;
37709;PMS5003;60223;34.854;-92.408;2023-03-01T08:40:24;2;2;
37709;PMS5003;60223;34.854;-92.408;2023-03-01T08:42:51;4;4;
37709;PMS5003;60223;34.854;-92.408;2023-03-01T08:45:17;4;3;
37709;PMS5003;60223;34.854;-92.408;2023-03-01T08:47:42;3;3;
37709;PMS5003;60223;34.854;-92.408;2023-03-01T08:50:08;4;4;
37709;PMS5003;60223;34.854;-92.408;2023-03-01T08:52:33;5;5;
37709;PMS5003;60223;34.854;-92.408;2023-03-01T08:54:59;3;3;
37709;PMS5003;60223;34.854;-92.408;2023-03-01T08:57:25;4;4;
37709;PMS5003;60223;34.854;-92.408;2023-03-01T08:59:50;5;5;
37709;PMS5003;60223;34.854;-92.408;2023-03-01T09:02:15;3;3;
37709;PMS5003;60223;34.854;-92.408;2023-03-01T09:04:39;6;3;
37709;PMS5003;60223;34.854;-92.408;2023-03-01T09:07:08;5;3;
37709;PMS5003;60223;34.854;-92.408;2023-03-01T09:09:33;7;6;
37709;PMS5003;60223;34.854;-92.408;2023-03-01T09:11:58;3;2;
37709;PMS5003;60223;34.854;-92.408;2023-03-01T09:14:25;3;3;
37709;PMS5003;60223;34.854;-92.408;2023-03-01T09:16:50;4;3;
37709;PMS5003;60223;34.854;-92.408;2023-03-01T09:19:16;3;3;
37709;PMS5003;60223;34.854;-92.408;2023-03-01T09:21:41;5;3;
37709;PMS5003;60223;34.854;-92.408;2023-03-01T09:24:11;5;5;
37709;PMS5003;60223;34.854;-92.408;2023-03-01T09:26:32;4;4;
37709;PMS5003;60223;34.854;-92.408;2023-03-01T09:28:59;4;3;
37709;PMS5003;60223;34.854;-92.408;2023-03-01T09:33:48;4;3;
37709;PMS5003;60223;34.854;-92.408;2023-03-01T09:36:16;3;3;
37709;PMS5003;60223;34.854;-92.408;2023-03-01T09:38:41;3;2;
37709;PMS5003;60223;34.854;-92.408;2023-03-01T09:41:09;3;3;
37709;PMS5003;60223;34.854;-92.408;2023-03-01T09:43:37;4;3;
37709;PMS5003;60223;34.854;-92.408;2023-03-01T09:45:58;3;3;
37709;PMS5003;60223;34.854;-92.408;2023-03-01T09:48:25;3;3;
37709;PMS5003;60223;34.854;-92.408;2023-03-01T09:50:50;4;4;
37709;PMS5003;60223;34.854;-92.408;2023-03-01T09:53:17;3;3;
37709;PMS5003;60223;34.854;-92.408;2023-03-01T09:55:43;6;3;
37709;PMS5003;60223;34.854;-92.408;2023-03-01T10:00:31;4;4;
37709;PMS5003;60223;34.854;-92.408;2023-03-01T10:03:00;4;4;
37709;PMS5003;60223;34.854;-92.408;2023-03-01T10:05:29;4;4;
37709;PMS5003;60223;34.854;-92.408;2023-03-01T10:07:52;2;2;
37709;PMS5003;60223;34.854;-92.408;2023-03-01T10:10:16;3;3;
37709;PMS5003;60223;34.854;-92.408;2023-03-01T10:12:41;5;5;
37709;PMS5003;60223;34.854;-92.408;2023-03-01T10:15:07;5;5;
37709;PMS5003;60223;34.854;-92.408;2023-03-01T10:17:33;3;3;
37709;PMS5003;60223;34.854;-92.408;2023-03-01T10:19:59;4;4;
37709;PMS5003;60223;34.854;-92.408;2023-03-01T10:22:22;4;4;
37709;PMS5003;60223;34.854;-92.408;2023-03-01T10:24:50;4;4;
37709;PMS5003;60223;34.854;-92.408;2023-03-01T10:27:17;4;4;
37709;PMS5003;60223;34.854;-92.408;2023-03-01T10:29:43;4;3;
37709;PMS5003;60223;34.854;-92.408;2023-03-01T10:32:06;4;4;
37709;PMS5003;60223;34.854;-92.408;2023-03-01T10:34:33;5;4;
37709;PMS5003;60223;34.854;-92.408;2023-03-01T10:36:58;5;5;
37709;PMS5003;60223;34.854;-92.408;2023-03-01T10:39:24;4;4;
37709;PMS5003;60223;34.854;-92.408;2023-03-01T10:41:54;5;5;
37709;PMS5003;60223;34.854;-92.408;2023-03-01T10:44:34;5;5;
37709;PMS5003;60223;34.854;-92.408;2023-03-01T10:46:41;7;6;
37709;PMS5003;60223;34.854;-92.408;2023-03-01T10:49:12;5;4;
37709;PMS5003;60223;34.854;-92.408;2023-03-01T10:51:31;3;3;
37709;PMS5003;60223;34.854;-92.408;2023-03-01T10:53:58;4;4;
37709;PMS5003;60223;34.854;-92.408;2023-03-01T10:56:23;5;5;
37709;PMS5003;60223;34.854;-92.408;2023-03-01T11:03:39;4;4;
37709;PMS5003;60223;34.854;-92.408;2023-03-01T11:06:19;4;4;
37709;PMS5003;60223;34.854;-92.408;2023-03-01T11:08:33;4;3;
37709;PMS5003;60223;34.854;-92.408;2023-03-01T11:13:22;5;5;
37709;PMS5003;60223;34.854;-92.408;2023-03-01T11:18:19;5;5;
37709;PMS5003;60223;34.854;-92.408;2023-03-01T11:20:40;5;5;
37709;PMS5003;60223;34.854;-92.408;2023-03-01T11:25:32;5;4;
37709;PMS5003;60223;34.854;-92.408;2023-03-01T11:27:57;5;4;
37709;PMS5003;60223;34.854;-92.408;2023-03-01T11:30:24;4;4;
37709;PMS5003;60223;34.854;-92.408;2023-03-01T11:32:47;6;6;
37709;PMS5003;60223;34.854;-92.408;2023-03-01T11:35:16;4;4;
37709;PMS5003;60223;34.854;-92.408;2023-03-01T11:37:41;6;6;
37709;PMS5003;60223;34.854;-92.408;2023-03-01T11:40:10;6;6;
37709;PMS5003;60223;34.854;-92.408;2023-03-01T11:42:35;6;6;
37709;PMS5003;60223;34.854;-92.408;2023-03-01T11:44:58;6;4;
37709;PMS5003;60223;34.854;-92.408;2023-03-01T11:47:29;7;7;
37709;PMS5003;60223;34.854;-92.408;2023-03-01T11:49:51;6;6;
37709;PMS5003;60223;34.854;-92.408;2023-03-01T11:52:17;5;4;
37709;PMS5003;60223;34.854;-92.408;2023-03-01T11:54:43;3;3;
37709;PMS5003;60223;34.854;-92.408;2023-03-01T11:57:09;7;7;
37709;PMS5003;60223;34.854;-92.408;2023-03-01T11:59:36;7;7;
37709;PMS5003;60223;34.854;-92.408;2023-03-01T12:02:09;5;5;
37709;PMS5003;60223;34.854;-92.408;2023-03-01T12:04:28;7;6;
37709;PMS5003;60223;34.854;-92.408;2023-03-01T12:06:52;9;9;
37709;PMS5003;60223;34.854;-92.408;2023-03-01T12:09:18;7;6;
37709;PMS5003;60223;34.854;-92.408;2023-03-01T12:11:41;9;9;
37709;PMS5003;60223;34.854;-92.408;2023-03-01T12:14:13;8;8;
37709;PMS5003;60223;34.854;-92.408;2023-03-01T12:16:34;10;10;
37709;PMS5003;60223;34.854;-92.408;2023-03-01T12:19:01;7;7;
37709;PMS5003;60223;34.854;-92.408;2023-03-01T12:21:22;11;8;
37709;PMS5003;60223;34.854;-92.408;2023-03-01T12:23:55;8;8;
37709;PMS5003;60223;34.854;-92.408;2023-03-01T12:26:13;10;9;
37709;PMS5003;60223;34.854;-92.408;2023-03-01T12:28:47;11;10;
37709;PMS5003;60223;34.854;-92.408;2023-03-01T12:31:08;7;7;
37709;PMS5003;60223;34.854;-92.408;2023-03-01T12:33:33;10;9;
37709;PMS5003;60223;34.854;-92.408;2023-03-01T12:36:00;8;7;
37709;PMS5003;60223;34.854;-92.408;2023-03-01T12:38:25;9;8;
37709;PMS5003;60223;34.854;-92.408;2023-03-01T12:43:20;7;7;
37709;PMS5003;60223;34.854;-92.408;2023-03-01T12:45:45;9;9;
37709;PMS5003;60223;34.854;-92.408;2023-03-01T12:48:08;13;12;
37709;PMS5003;60223;34.854;-92.408;2023-03-01T12:50:29;11;11;
37709;PMS5003;60223;34.854;-92.408;2023-03-01T12:52:56;9;9;
37709;PMS5003;60223;34.854;-92.408;2023-03-01T12:55:25;13;13;
37709;PMS5003;60223;34.854;-92.408;2023-03-01T12:57:47;8;8;
37709;PMS5003;60223;34.854;-92.408;2023-03-01T13:02:39;11;11;
37709;PMS5003;60223;34.854;-92.408;2023-03-01T13:05:06;12;11;
37709;PMS5003;60223;34.854;-92.408;2023-03-01T13:07:30;9;9;
37709;PMS5003;60223;34.854;-92.408;2023-03-01T13:09:58;10;10;
37709;PMS5003;60223;34.854;-92.408;2023-03-01T13:14:46;13;13;
37709;PMS5003;60223;34.854;-92.408;2023-03-01T13:29:26;13;12;
37709;PMS5003;60223;34.854;-92.408;2023-03-01T13:39:01;14;12;
37709;PMS5003;60223;34.854;-92.408;2023-03-01T13:43:52;12;12;
37709;PMS5003;60223;34.854;-92.408;2023-03-01T13:46:18;13;13;
37709;PMS5003;60223;34.854;-92.408;2023-03-01T13:48:43;13;12;
37709;PMS5003;60223;34.854;-92.408;2023-03-01T13:51:09;16;16;
37709;PMS5003;60223;34.854;-92.408;2023-03-01T13:53:33;13;12;
37709;PMS5003;60223;34.854;-92.408;2023-03-01T13:56:00;13;13;
37709;PMS5003;60223;34.854;-92.408;2023-03-01T13:58:26;18;16;
37709;PMS5003;60223;34.854;-92.408;2023-03-01T14:00:56;13;13;
37709;PMS5003;60223;34.854;-92.408;2023-03-01T14:03:17;14;13;
37709;PMS5003;60223;34.854;-92.408;2023-03-01T14:05:42;15;12;
37709;PMS5003;60223;34.854;-92.408;2023-03-01T14:10:32;14;14;
37709;PMS5003;60223;34.854;-92.408;2023-03-01T14:13:00;14;14;
37709;PMS5003;60223;34.854;-92.408;2023-03-01T14:15:25;16;15;
37709;PMS5003;60223;34.854;-92.408;2023-03-01T14:17:50;15;14;
37709;PMS5003;60223;34.854;-92.408;2023-03-01T14:20:16;12;12;
37709;PMS5003;60223;34.854;-92.408;2023-03-01T14:22:37;12;12;
37709;PMS5003;60223;34.854;-92.408;2023-03-01T14:25:06;14;13;
37709;PMS5003;60223;34.854;-92.408;2023-03-01T14:27:33;13;13;
37709;PMS5003;60223;34.854;-92.408;2023-03-01T14:29:56;11;11;
37709;PMS5003;60223;34.854;-92.408;2023-03-01T14:32:23;16;15;
37709;PMS5003;60223;34.854;-92.408;2023-03-01T14:34:48;13;13;
37709;PMS5003;60223;34.854;-92.408;2023-03-01T14:37:18;16;15;
37709;PMS5003;60223;34.854;-92.408;2023-03-01T14:39:37;16;16;
37709;PMS5003;60223;34.854;-92.408;2023-03-01T14:42:04;14;13;
37709;PMS5003;60223;34.854;-92.408;2023-03-01T14:44:30;12;11;
37709;PMS5003;60223;34.854;-92.408;2023-03-01T14:46:55;14;14;
37709;PMS5003;60223;34.854;-92.408;2023-03-01T14:49:20;16;15;
37709;PMS5003;60223;34.854;-92.408;2023-03-01T14:51:50;17;15;
37709;PMS5003;60223;34.854;-92.408;2023-03-01T14:56:43;15;15;
37709;PMS5003;60223;34.854;-92.408;2023-03-01T14:59:03;13;12;
37709;PMS5003;60223;34.854;-92.408;2023-03-01T15:01:28;16;14;
37709;PMS5003;60223;34.854;-92.408;2023-03-01T15:03:54;26;21;
37709;PMS5003;60223;34.854;-92.408;2023-03-01T15:06:21;19;19;
37709;PMS5003;60223;34.854;-92.408;2023-03-01T15:08:47;15;15;
37709;PMS5003;60223;34.854;-92.408;2023-03-01T15:13:36;18;17;
37709;PMS5003;60223;34.854;-92.408;2023-03-01T15:16:03;13;13;
37709;PMS5003;60223;34.854;-92.408;2023-03-01T15:18:25;20;18;
37709;PMS5003;60223;34.854;-92.408;2023-03-01T15:20:52;21;20;
37709;PMS5003;60223;34.854;-92.408;2023-03-01T15:25:43;22;21;
37709;PMS5003;60223;34.854;-92.408;2023-03-01T15:28:04;35;32;
37709;PMS5003;60223;34.854;-92.408;2023-03-01T15:30:32;36;33;
37709;PMS5003;60223;34.854;-92.408;2023-03-01T15:37:47;34;32;
37709;PMS5003;60223;34.854;-92.408;2023-03-01T15:40:17;31;29;
37709;PMS5003;60223;34.854;-92.408;2023-03-01T15:42:39;37;35;
37709;PMS5003;60223;34.854;-92.408;2023-03-01T15:45:07;39;35;
37709;PMS5003;60223;34.854;-92.408;2023-03-01T15:47:30;35;34;
37709;PMS5003;60223;34.854;-92.408;2023-03-01T15:49:55;41;36;
37709;PMS5003;60223;34.854;-92.408;2023-03-01T15:52:22;36;35;
37709;PMS5003;60223;34.854;-92.408;2023-03-01T15:54:46;39;33;
37709;PMS5003;60223;34.854;-92.408;2023-03-01T15:57:12;34;32;
37709;PMS5003;60223;34.854;-92.408;2023-03-01T15:59:36;35;35;
37709;PMS5003;60223;34.854;-92.408;2023-03-01T16:04:28;38;33;
37709;PMS5003;60223;34.854;-92.408;2023-03-01T16:06:53;31;31;
37709;PMS5003;60223;34.854;-92.408;2023-03-01T16:09:18;29;26;
37709;PMS5003;60223;34.854;-92.408;2023-03-01T16:11:44;37;35;
37709;PMS5003;60223;34.854;-92.408;2023-03-01T16:14:10;32;31;
37709;PMS5003;60223;34.854;-92.408;2023-03-01T16:16:34;34;30;
37709;PMS5003;60223;34.854;-92.408;2023-03-01T16:19:01;30;26;
37709;PMS5003;60223;34.854;-92.408;2023-03-01T16:21:26;28;27;
37709;PMS5003;60223;34.854;-92.408;2023-03-01T16:23:52;28;27;
37709;PMS5003;60223;34.854;-92.408;2023-03-01T16:26:17;32;32;
37709;PMS5003;60223;34.854;-92.408;2023-03-01T16:28:42;30;27;
37709;PMS5003;60223;34.854;-92.408;2023-03-01T16:31:07;35;31;
37709;PMS5003;60223;34.854;-92.408;2023-03-01T16:33:33;31;28;
37709;PMS5003;60223;34.854;-92.408;2023-03-01T16:35:58;31;28;
37709;PMS5003;60223;34.854;-92.408;2023-03-01T16:38:23;35;31;
37709;PMS5003;60223;34.854;-92.408;2023-03-01T16:40:49;34;32;
37709;PMS5003;60223;34.854;-92.408;2023-03-01T16:43:12;28;24;
37709;PMS5003;60223;34.854;-92.408;2023-03-01T16:45:38;30;29;
37709;PMS5003;60223;34.854;-92.408;2023-03-01T16:48:05;30;26;
37709;PMS5003;60223;34.854;-92.408;2023-03-01T16:50:30;28;28;
37709;PMS5003;60223;34.854;-92.408;2023-03-01T16:52:55;26;25;
37709;PMS5003;60223;34.854;-92.408;2023-03-01T16:55:20;33;33;
37709;PMS5003;60223;34.854;-92.408;2023-03-01T16:57:45;29;27;
37709;PMS5003;60223;34.854;-92.408;2023-03-01T17:00:10;27;27;
37709;PMS5003;60223;34.854;-92.408;2023-03-01T17:02:33;42;35;
37709;PMS5003;60223;34.854;-92.408;2023-03-01T17:05:02;31;28;
37709;PMS5003;60223;34.854;-92.408;2023-03-01T17:07:27;32;32;
37709;PMS5003;60223;34.854;-92.408;2023-03-01T17:09:53;31;28;
37709;PMS5003;60223;34.854;-92.408;2023-03-01T17:12:17;39;35;
37709;PMS5003;60223;34.854;-92.408;2023-03-01T17:14:43;30;28;
37709;PMS5003;60223;34.854;-92.408;2023-03-01T17:17:09;29;29;
37709;PMS5003;60223;34.854;-92.408;2023-03-01T17:19:33;28;28;
37709;PMS5003;60223;34.854;-92.408;2023-03-01T17:21:56;33;32;
37709;PMS5003;60223;34.854;-92.408;2023-03-01T17:24:24;36;34;
37709;PMS5003;60223;34.854;-92.408;2023-03-01T17:26:50;28;27;
37709;PMS5003;60223;34.854;-92.408;2023-03-01T17:29:16;31;30;
37709;PMS5003;60223;34.854;-92.408;2023-03-01T17:31:41;35;32;
37709;PMS5003;60223;34.854;-92.408;2023-03-01T17:34:07;35;33;
37709;PMS5003;60223;34.854;-92.408;2023-03-01T17:36:32;36;35;
37709;PMS5003;60223;34.854;-92.408;2023-03-01T17:38:57;32;29;
37709;PMS5003;60223;34.854;-92.408;2023-03-01T17:41:20;32;29;
37709;PMS5003;60223;34.854;-92.408;2023-03-01T17:43:48;33;32;
37709;PMS5003;60223;34.854;-92.408;2023-03-01T17:46:13;32;31;
37709;PMS5003;60223;34.854;-92.408;2023-03-01T17:48:38;34;34;